sensor_id;sensor_type;location;lat;lon;timestamp;noise_LAeq;noise_LA_min;noise_LA_max;noise_LA01;noise_LA95
69609;Laerm;56815;52.320;4.858;2023-02-25T00:00:06;42.95;37.88;52.74;;
69609;Laerm;56815;52.320;4.858;2023-02-25T00:00:26;40.14;37.69;44.36;;
69609;Laerm;56815;52.320;4.858;2023-02-25T00:00:39;40.53;38.06;45.18;;
69609;Laerm;56815;52.320;4.858;2023-02-25T00:00:49;39.59;37.41;43.63;;
69609;Laerm;56815;52.320;4.858;2023-02-25T00:01:03;39.72;36.56;49.61;;
69609;Laerm;56815;52.320;4.858;2023-02-25T00:01:14;42.05;37.34;47.17;;
69609;Laerm;56815;52.320;4.858;2023-02-25T00:01:25;39.88;37.41;44.27;;
69609;Laerm;56815;52.320;4.858;2023-02-25T00:01:36;39.62;36.73;45.51;;
69609;Laerm;56815;52.320;4.858;2023-02-25T00:01:46;39.64;36.85;44.16;;
69609;Laerm;56815;52.320;4.858;2023-02-25T00:01:57;40.22;37.99;48.14;;
69609;Laerm;56815;52.320;4.858;2023-02-25T00:02:07;39.65;37.65;43.33;;
69609;Laerm;56815;52.320;4.858;2023-02-25T00:02:17;40.02;36.94;49.36;;
69609;Laerm;56815;52.320;4.858;2023-02-25T00:02:28;38.86;36.53;49.54;;
69609;Laerm;56815;52.320;4.858;2023-02-25T00:02:38;38.46;36.50;40.61;;
69609;Laerm;56815;52.320;4.858;2023-02-25T00:02:49;38.76;36.11;42.14;;
69609;Laerm;56815;52.320;4.858;2023-02-25T00:02:59;38.78;35.79;45.40;;
69609;Laerm;56815;52.320;4.858;2023-02-25T00:03:10;39.58;36.95;48.53;;
69609;Laerm;56815;52.320;4.858;2023-02-25T00:03:21;39.44;36.84;48.97;;
69609;Laerm;56815;52.320;4.858;2023-02-25T00:03:31;39.35;36.95;41.63;;
69609;Laerm;56815;52.320;4.858;2023-02-25T00:03:42;39.01;36.17;42.54;;
69609;Laerm;56815;52.320;4.858;2023-02-25T00:03:53;38.88;36.49;44.97;;
69609;Laerm;56815;52.320;4.858;2023-02-25T00:04:04;39.17;37.10;44.96;;
69609;Laerm;56815;52.320;4.858;2023-02-25T00:04:14;39.76;37.02;53.19;;
69609;Laerm;56815;52.320;4.858;2023-02-25T00:04:28;39.89;37.23;44.19;;
69609;Laerm;56815;52.320;4.858;2023-02-25T00:04:38;39.70;36.40;47.62;;
69609;Laerm;56815;52.320;4.858;2023-02-25T00:04:51;39.58;36.91;47.62;;
69609;Laerm;56815;52.320;4.858;2023-02-25T00:05:02;39.67;36.53;43.49;;
69609;Laerm;56815;52.320;4.858;2023-02-25T00:05:16;38.66;36.00;45.92;;
69609;Laerm;56815;52.320;4.858;2023-02-25T00:05:27;37.86;35.27;40.97;;
69609;Laerm;56815;52.320;4.858;2023-02-25T00:05:39;38.66;36.45;46.58;;
69609;Laerm;56815;52.320;4.858;2023-02-25T00:05:50;38.72;35.60;45.51;;
69609;Laerm;56815;52.320;4.858;2023-02-25T00:06:01;42.88;36.72;65.17;;
69609;Laerm;56815;52.320;4.858;2023-02-25T00:06:12;38.39;35.97;41.23;;
69609;Laerm;56815;52.320;4.858;2023-02-25T00:06:23;38.47;35.44;47.83;;
69609;Laerm;56815;52.320;4.858;2023-02-25T00:06:33;38.97;36.25;43.02;;
69609;Laerm;56815;52.320;4.858;2023-02-25T00:06:43;38.87;36.24;50.29;;
69609;Laerm;56815;52.320;4.858;2023-02-25T00:06:55;38.20;34.86;44.24;;
69609;Laerm;56815;52.320;4.858;2023-02-25T00:07:05;38.11;35.55;47.76;;
69609;Laerm;56815;52.320;4.858;2023-02-25T00:07:15;38.01;35.67;43.33;;
69609;Laerm;56815;52.320;4.858;2023-02-25T00:07:26;38.46;36.43;43.45;;
69609;Laerm;56815;52.320;4.858;2023-02-25T00:07:38;39.84;35.45;59.30;;
69609;Laerm;56815;52.320;4.858;2023-02-25T00:07:49;37.91;35.77;41.23;;
69609;Laerm;56815;52.320;4.858;2023-02-25T00:07:59;41.17;35.92;58.68;;
69609;Laerm;56815;52.320;4.858;2023-02-25T00:08:09;38.47;36.44;41.08;;
69609;Laerm;56815;52.320;4.858;2023-02-25T00:08:20;38.19;34.99;43.56;;
69609;Laerm;56815;52.320;4.858;2023-02-25T00:08:30;38.34;35.49;47.51;;
69609;Laerm;56815;52.320;4.858;2023-02-25T00:08:43;38.07;36.02;43.58;;
69609;Laerm;56815;52.320;4.858;2023-02-25T00:08:54;42.32;35.52;61.52;;
69609;Laerm;56815;52.320;4.858;2023-02-25T00:09:05;37.94;36.05;44.30;;
69609;Laerm;56815;52.320;4.858;2023-02-25T00:09:15;38.85;36.67;44.13;;
69609;Laerm;56815;52.320;4.858;2023-02-25T00:09:26;38.75;36.05;45.57;;
69609;Laerm;56815;52.320;4.858;2023-02-25T00:09:36;38.47;36.50;47.85;;
69609;Laerm;56815;52.320;4.858;2023-02-25T00:09:46;38.66;35.79;43.26;;
69609;Laerm;56815;52.320;4.858;2023-02-25T00:09:56;38.07;36.14;42.01;;
69609;Laerm;56815;52.320;4.858;2023-02-25T00:10:07;38.18;35.51;43.15;;
69609;Laerm;56815;52.320;4.858;2023-02-25T00:10:18;38.43;35.90;48.10;;
69609;Laerm;56815;52.320;4.858;2023-02-25T00:10:29;38.57;36.77;41.03;;
69609;Laerm;56815;52.320;4.858;2023-02-25T00:10:39;38.87;36.15;43.63;;
69609;Laerm;56815;52.320;4.858;2023-02-25T00:10:58;38.02;35.67;43.36;;
69609;Laerm;56815;52.320;4.858;2023-02-25T00:11:09;38.29;35.96;42.53;;
69609;Laerm;56815;52.320;4.858;2023-02-25T00:11:21;38.35;36.58;41.56;;
69609;Laerm;56815;52.320;4.858;2023-02-25T00:11:31;38.97;36.31;42.60;;
69609;Laerm;56815;52.320;4.858;2023-02-25T00:11:42;39.63;36.73;45.90;;
69609;Laerm;56815;52.320;4.858;2023-02-25T00:11:52;41.86;36.75;62.64;;
69609;Laerm;56815;52.320;4.858;2023-02-25T00:12:02;39.55;37.04;46.07;;
69609;Laerm;56815;52.320;4.858;2023-02-25T00:12:13;40.51;38.16;53.47;;
69609;Laerm;56815;52.320;4.858;2023-02-25T00:12:23;39.95;36.94;41.84;;
69609;Laerm;56815;52.320;4.858;2023-02-25T00:12:34;39.25;37.32;43.97;;
69609;Laerm;56815;52.320;4.858;2023-02-25T00:12:44;38.38;36.45;43.04;;
69609;Laerm;56815;52.320;4.858;2023-02-25T00:12:54;38.71;36.31;41.59;;
69609;Laerm;56815;52.320;4.858;2023-02-25T00:13:04;39.99;37.21;45.22;;
69609;Laerm;56815;52.320;4.858;2023-02-25T00:13:15;40.86;38.42;44.31;;
69609;Laerm;56815;52.320;4.858;2023-02-25T00:13:25;39.88;36.45;47.31;;
69609;Laerm;56815;52.320;4.858;2023-02-25T00:13:37;38.99;36.46;41.28;;
69609;Laerm;56815;52.320;4.858;2023-02-25T00:13:48;42.32;36.26;56.93;;
69609;Laerm;56815;52.320;4.858;2023-02-25T00:13:58;38.67;36.12;40.69;;
69609;Laerm;56815;52.320;4.858;2023-02-25T00:14:08;39.07;36.95;42.12;;
69609;Laerm;56815;52.320;4.858;2023-02-25T00:14:19;39.42;37.31;45.66;;
69609;Laerm;56815;52.320;4.858;2023-02-25T00:14:30;39.54;37.19;50.61;;
69609;Laerm;56815;52.320;4.858;2023-02-25T00:14:40;39.27;36.86;41.51;;
69609;Laerm;56815;52.320;4.858;2023-02-25T00:14:50;42.19;36.79;63.43;;
69609;Laerm;56815;52.320;4.858;2023-02-25T00:15:00;39.76;36.98;42.29;;
69609;Laerm;56815;52.320;4.858;2023-02-25T00:15:11;39.45;36.96;41.43;;
69609;Laerm;56815;52.320;4.858;2023-02-25T00:15:22;39.99;37.32;43.11;;
69609;Laerm;56815;52.320;4.858;2023-02-25T00:15:32;40.16;38.23;43.30;;
69609;Laerm;56815;52.320;4.858;2023-02-25T00:15:43;40.25;38.09;43.57;;
69609;Laerm;56815;52.320;4.858;2023-02-25T00:15:53;40.21;37.74;42.53;;
69609;Laerm;56815;52.320;4.858;2023-02-25T00:16:07;40.84;38.20;44.55;;
69609;Laerm;56815;52.320;4.858;2023-02-25T00:16:19;40.96;38.80;45.02;;
69609;Laerm;56815;52.320;4.858;2023-02-25T00:16:29;40.39;38.22;43.57;;
69609;Laerm;56815;52.320;4.858;2023-02-25T00:16:42;40.72;38.34;44.78;;
69609;Laerm;56815;52.320;4.858;2023-02-25T00:16:52;41.25;38.34;44.09;;
69609;Laerm;56815;52.320;4.858;2023-02-25T00:17:04;41.68;38.80;46.12;;
69609;Laerm;56815;52.320;4.858;2023-02-25T00:17:15;41.47;38.29;43.89;;
69609;Laerm;56815;52.320;4.858;2023-02-25T00:17:25;41.20;38.30;45.58;;
69609;Laerm;56815;52.320;4.858;2023-02-25T00:17:36;41.17;38.51;46.41;;
69609;Laerm;56815;52.320;4.858;2023-02-25T00:17:48;40.66;38.05;43.20;;
69609;Laerm;56815;52.320;4.858;2023-02-25T00:17:59;40.06;37.78;43.45;;
69609;Laerm;56815;52.320;4.858;2023-02-25T00:18:09;39.96;37.54;42.55;;
69609;Laerm;56815;52.320;4.858;2023-02-25T00:18:19;39.64;36.91;41.74;;
69609;Laerm;56815;52.320;4.858;2023-02-25T00:18:30;40.58;38.38;43.78;;
69609;Laerm;56815;52.320;4.858;2023-02-25T00:18:40;40.42;36.88;45.91;;
69609;Laerm;56815;52.320;4.858;2023-02-25T00:18:56;40.45;37.98;46.57;;
69609;Laerm;56815;52.320;4.858;2023-02-25T00:19:07;39.64;37.17;44.23;;
69609;Laerm;56815;52.320;4.858;2023-02-25T00:19:17;39.68;37.38;45.44;;
69609;Laerm;56815;52.320;4.858;2023-02-25T00:19:27;39.88;37.71;44.73;;
69609;Laerm;56815;52.320;4.858;2023-02-25T00:19:38;39.47;37.07;42.32;;
69609;Laerm;56815;52.320;4.858;2023-02-25T00:19:48;39.54;36.66;42.05;;
69609;Laerm;56815;52.320;4.858;2023-02-25T00:19:58;39.90;37.21;46.97;;
69609;Laerm;56815;52.320;4.858;2023-02-25T00:20:09;40.06;37.93;43.39;;
69609;Laerm;56815;52.320;4.858;2023-02-25T00:20:22;40.47;37.69;45.00;;
69609;Laerm;56815;52.320;4.858;2023-02-25T00:20:32;40.33;38.04;43.79;;
69609;Laerm;56815;52.320;4.858;2023-02-25T00:20:42;40.51;37.74;43.78;;
69609;Laerm;56815;52.320;4.858;2023-02-25T00:20:53;40.28;37.26;42.49;;
69609;Laerm;56815;52.320;4.858;2023-02-25T00:21:04;44.03;37.38;63.53;;
69609;Laerm;56815;52.320;4.858;2023-02-25T00:21:15;41.73;38.72;54.70;;
69609;Laerm;56815;52.320;4.858;2023-02-25T00:21:25;40.55;38.35;44.83;;
69609;Laerm;56815;52.320;4.858;2023-02-25T00:21:38;40.75;37.35;50.19;;
69609;Laerm;56815;52.320;4.858;2023-02-25T00:21:48;41.05;38.33;44.97;;
69609;Laerm;56815;52.320;4.858;2023-02-25T00:21:59;41.12;38.98;43.49;;
69609;Laerm;56815;52.320;4.858;2023-02-25T00:22:10;40.26;37.86;43.82;;
69609;Laerm;56815;52.320;4.858;2023-02-25T00:22:20;41.20;38.66;45.52;;
69609;Laerm;56815;52.320;4.858;2023-02-25T00:22:30;40.24;37.99;45.37;;
69609;Laerm;56815;52.320;4.858;2023-02-25T00:22:40;39.23;37.11;41.21;;
69609;Laerm;56815;52.320;4.858;2023-02-25T00:22:51;39.84;37.51;44.97;;
69609;Laerm;56815;52.320;4.858;2023-02-25T00:23:01;41.97;37.48;59.94;;
69609;Laerm;56815;52.320;4.858;2023-02-25T00:23:12;40.71;38.39;43.17;;
69609;Laerm;56815;52.320;4.858;2023-02-25T00:23:22;40.26;38.07;44.43;;
69609;Laerm;56815;52.320;4.858;2023-02-25T00:23:32;40.37;38.36;43.25;;
69609;Laerm;56815;52.320;4.858;2023-02-25T00:23:43;40.29;37.58;42.79;;
69609;Laerm;56815;52.320;4.858;2023-02-25T00:23:54;40.80;38.20;47.45;;
69609;Laerm;56815;52.320;4.858;2023-02-25T00:24:05;40.50;37.90;44.21;;
69609;Laerm;56815;52.320;4.858;2023-02-25T00:24:16;43.31;37.71;64.25;;
69609;Laerm;56815;52.320;4.858;2023-02-25T00:24:26;43.15;37.95;49.22;;
69609;Laerm;56815;52.320;4.858;2023-02-25T00:24:37;45.89;39.21;55.10;;
69609;Laerm;56815;52.320;4.858;2023-02-25T00:24:50;46.19;39.25;51.95;;
69609;Laerm;56815;52.320;4.858;2023-02-25T00:25:00;45.98;41.55;49.67;;
69609;Laerm;56815;52.320;4.858;2023-02-25T00:25:11;45.66;40.88;51.55;;
69609;Laerm;56815;52.320;4.858;2023-02-25T00:25:22;42.95;39.77;47.57;;
69609;Laerm;56815;52.320;4.858;2023-02-25T00:25:33;41.03;38.62;43.31;;
69609;Laerm;56815;52.320;4.858;2023-02-25T00:25:43;40.56;38.36;43.10;;
69609;Laerm;56815;52.320;4.858;2023-02-25T00:25:58;40.06;37.48;43.25;;
69609;Laerm;56815;52.320;4.858;2023-02-25T00:26:08;40.87;38.40;45.95;;
69609;Laerm;56815;52.320;4.858;2023-02-25T00:26:20;40.89;37.78;56.59;;
69609;Laerm;56815;52.320;4.858;2023-02-25T00:26:31;40.36;37.71;43.65;;
69609;Laerm;56815;52.320;4.858;2023-02-25T00:26:41;40.36;38.16;43.05;;
69609;Laerm;56815;52.320;4.858;2023-02-25T00:26:51;39.61;37.31;41.85;;
69609;Laerm;56815;52.320;4.858;2023-02-25T00:27:02;39.97;37.48;43.21;;
69609;Laerm;56815;52.320;4.858;2023-02-25T00:27:12;40.28;37.60;44.36;;
69609;Laerm;56815;52.320;4.858;2023-02-25T00:27:23;40.10;37.24;43.24;;
69609;Laerm;56815;52.320;4.858;2023-02-25T00:27:34;40.60;37.27;48.39;;
69609;Laerm;56815;52.320;4.858;2023-02-25T00:27:45;43.12;38.62;63.96;;
69609;Laerm;56815;52.320;4.858;2023-02-25T00:27:55;40.77;37.93;45.82;;
69609;Laerm;56815;52.320;4.858;2023-02-25T00:28:06;40.77;37.57;50.10;;
69609;Laerm;56815;52.320;4.858;2023-02-25T00:28:16;42.98;38.09;52.15;;
69609;Laerm;56815;52.320;4.858;2023-02-25T00:28:26;41.16;38.74;47.95;;
69609;Laerm;56815;52.320;4.858;2023-02-25T00:28:37;40.40;37.51;43.50;;
69609;Laerm;56815;52.320;4.858;2023-02-25T00:28:49;41.44;38.73;46.56;;
69609;Laerm;56815;52.320;4.858;2023-02-25T00:28:59;41.14;38.00;43.81;;
69609;Laerm;56815;52.320;4.858;2023-02-25T00:29:09;40.37;37.96;44.41;;
69609;Laerm;56815;52.320;4.858;2023-02-25T00:29:19;39.56;37.40;41.86;;
69609;Laerm;56815;52.320;4.858;2023-02-25T00:29:31;39.90;37.01;43.45;;
69609;Laerm;56815;52.320;4.858;2023-02-25T00:29:41;40.08;37.60;42.96;;
69609;Laerm;56815;52.320;4.858;2023-02-25T00:29:52;39.69;36.63;42.78;;
69609;Laerm;56815;52.320;4.858;2023-02-25T00:30:03;41.86;38.36;49.47;;
69609;Laerm;56815;52.320;4.858;2023-02-25T00:30:14;39.44;37.42;42.57;;
69609;Laerm;56815;52.320;4.858;2023-02-25T00:30:24;39.59;36.43;41.67;;
69609;Laerm;56815;52.320;4.858;2023-02-25T00:30:36;39.21;36.97;41.37;;
69609;Laerm;56815;52.320;4.858;2023-02-25T00:30:47;39.40;37.02;43.73;;
69609;Laerm;56815;52.320;4.858;2023-02-25T00:30:57;39.10;36.22;47.60;;
69609;Laerm;56815;52.320;4.858;2023-02-25T00:31:09;38.23;35.46;46.03;;
69609;Laerm;56815;52.320;4.858;2023-02-25T00:31:20;42.27;36.11;62.80;;
69609;Laerm;56815;52.320;4.858;2023-02-25T00:31:31;42.59;36.51;48.31;;
69609;Laerm;56815;52.320;4.858;2023-02-25T00:31:42;39.60;36.79;45.40;;
69609;Laerm;56815;52.320;4.858;2023-02-25T00:31:52;39.13;36.52;41.52;;
69609;Laerm;56815;52.320;4.858;2023-02-25T00:32:02;39.09;36.70;42.48;;
69609;Laerm;56815;52.320;4.858;2023-02-25T00:32:12;39.10;35.96;42.58;;
69609;Laerm;56815;52.320;4.858;2023-02-25T00:32:23;38.71;36.23;41.69;;
69609;Laerm;56815;52.320;4.858;2023-02-25T00:32:33;38.41;36.37;41.59;;
69609;Laerm;56815;52.320;4.858;2023-02-25T00:32:43;38.64;35.55;41.67;;
69609;Laerm;56815;52.320;4.858;2023-02-25T00:32:53;39.63;35.76;43.83;;
69609;Laerm;56815;52.320;4.858;2023-02-25T00:33:04;39.52;36.61;44.11;;
69609;Laerm;56815;52.320;4.858;2023-02-25T00:33:17;38.89;36.01;43.81;;
69609;Laerm;56815;52.320;4.858;2023-02-25T00:33:27;38.63;35.54;46.39;;
69609;Laerm;56815;52.320;4.858;2023-02-25T00:33:38;38.00;35.50;40.44;;
69609;Laerm;56815;52.320;4.858;2023-02-25T00:33:51;38.39;35.94;40.77;;
69609;Laerm;56815;52.320;4.858;2023-02-25T00:34:01;38.94;35.86;41.50;;
69609;Laerm;56815;52.320;4.858;2023-02-25T00:34:12;38.63;35.98;42.91;;
69609;Laerm;56815;52.320;4.858;2023-02-25T00:34:22;39.75;37.00;46.37;;
69609;Laerm;56815;52.320;4.858;2023-02-25T00:34:32;39.49;37.48;42.96;;
69609;Laerm;56815;52.320;4.858;2023-02-25T00:34:42;39.47;37.40;42.59;;
69609;Laerm;56815;52.320;4.858;2023-02-25T00:34:53;42.66;36.23;63.62;;
69609;Laerm;56815;52.320;4.858;2023-02-25T00:35:03;38.86;36.48;42.57;;
69609;Laerm;56815;52.320;4.858;2023-02-25T00:35:13;39.29;36.45;42.00;;
69609;Laerm;56815;52.320;4.858;2023-02-25T00:35:24;38.33;35.99;42.52;;
69609;Laerm;56815;52.320;4.858;2023-02-25T00:35:37;38.21;35.54;44.74;;
69609;Laerm;56815;52.320;4.858;2023-02-25T00:35:47;37.88;35.66;40.60;;
69609;Laerm;56815;52.320;4.858;2023-02-25T00:35:59;37.90;35.56;41.37;;
69609;Laerm;56815;52.320;4.858;2023-02-25T00:36:16;38.81;35.87;44.40;;
69609;Laerm;56815;52.320;4.858;2023-02-25T00:36:30;39.19;36.20;42.83;;
69609;Laerm;56815;52.320;4.858;2023-02-25T00:36:40;38.53;35.98;40.97;;
69609;Laerm;56815;52.320;4.858;2023-02-25T00:36:50;39.07;36.40;45.41;;
69609;Laerm;56815;52.320;4.858;2023-02-25T00:37:01;39.31;36.95;41.62;;
69609;Laerm;56815;52.320;4.858;2023-02-25T00:37:11;40.98;37.04;45.59;;
69609;Laerm;56815;52.320;4.858;2023-02-25T00:37:22;45.30;38.38;53.86;;
69609;Laerm;56815;52.320;4.858;2023-02-25T00:37:32;45.94;39.60;54.68;;
69609;Laerm;56815;52.320;4.858;2023-02-25T00:37:42;43.83;39.27;49.92;;
69609;Laerm;56815;52.320;4.858;2023-02-25T00:37:52;46.70;40.45;53.11;;
69609;Laerm;56815;52.320;4.858;2023-02-25T00:38:03;43.23;39.30;51.51;;
69609;Laerm;56815;52.320;4.858;2023-02-25T00:38:16;39.60;36.06;47.44;;
69609;Laerm;56815;52.320;4.858;2023-02-25T00:38:26;41.13;35.99;62.08;;
69609;Laerm;56815;52.320;4.858;2023-02-25T00:38:37;38.99;36.45;40.95;;
69609;Laerm;56815;52.320;4.858;2023-02-25T00:38:48;38.45;36.06;41.35;;
69609;Laerm;56815;52.320;4.858;2023-02-25T00:38:59;37.98;35.89;41.79;;
69609;Laerm;56815;52.320;4.858;2023-02-25T00:39:09;38.03;35.27;41.89;;
69609;Laerm;56815;52.320;4.858;2023-02-25T00:39:20;41.87;37.34;47.36;;
69609;Laerm;56815;52.320;4.858;2023-02-25T00:39:30;40.48;37.56;45.46;;
69609;Laerm;56815;52.320;4.858;2023-02-25T00:39:53;39.25;35.72;42.16;;
69609;Laerm;56815;52.320;4.858;2023-02-25T00:40:03;40.35;38.17;46.78;;
69609;Laerm;56815;52.320;4.858;2023-02-25T00:40:18;39.65;37.39;44.07;;
69609;Laerm;56815;52.320;4.858;2023-02-25T00:40:28;38.74;36.45;41.61;;
69609;Laerm;56815;52.320;4.858;2023-02-25T00:40:38;38.57;36.40;43.04;;
69609;Laerm;56815;52.320;4.858;2023-02-25T00:40:49;38.80;35.84;41.21;;
69609;Laerm;56815;52.320;4.858;2023-02-25T00:41:02;39.51;36.38;43.07;;
69609;Laerm;56815;52.320;4.858;2023-02-25T00:41:13;37.72;35.58;41.41;;
69609;Laerm;56815;52.320;4.858;2023-02-25T00:41:26;38.62;36.10;41.17;;
69609;Laerm;56815;52.320;4.858;2023-02-25T00:41:37;38.65;36.66;40.72;;
69609;Laerm;56815;52.320;4.858;2023-02-25T00:41:47;39.64;37.46;43.59;;
69609;Laerm;56815;52.320;4.858;2023-02-25T00:41:57;38.92;36.19;41.50;;
69609;Laerm;56815;52.320;4.858;2023-02-25T00:42:11;39.72;37.34;43.76;;
69609;Laerm;56815;52.320;4.858;2023-02-25T00:42:22;39.30;36.63;41.22;;
69609;Laerm;56815;52.320;4.858;2023-02-25T00:42:32;42.18;36.83;63.39;;
69609;Laerm;56815;52.320;4.858;2023-02-25T00:42:43;38.87;36.78;42.29;;
69609;Laerm;56815;52.320;4.858;2023-02-25T00:42:53;39.21;36.72;45.22;;
69609;Laerm;56815;52.320;4.858;2023-02-25T00:43:04;38.38;36.30;40.81;;
69609;Laerm;56815;52.320;4.858;2023-02-25T00:43:14;38.72;36.59;42.09;;
69609;Laerm;56815;52.320;4.858;2023-02-25T00:43:25;39.24;37.01;43.32;;
69609;Laerm;56815;52.320;4.858;2023-02-25T00:43:35;38.72;36.56;41.19;;
69609;Laerm;56815;52.320;4.858;2023-02-25T00:43:49;38.65;36.25;45.69;;
69609;Laerm;56815;52.320;4.858;2023-02-25T00:44:00;39.13;35.88;42.12;;
69609;Laerm;56815;52.320;4.858;2023-02-25T00:44:11;38.52;35.42;46.13;;
69609;Laerm;56815;52.320;4.858;2023-02-25T00:44:22;39.02;35.74;42.88;;
69609;Laerm;56815;52.320;4.858;2023-02-25T00:44:32;39.39;37.57;41.66;;
69609;Laerm;56815;52.320;4.858;2023-02-25T00:44:46;39.40;37.01;42.73;;
69609;Laerm;56815;52.320;4.858;2023-02-25T00:44:57;38.70;36.59;43.52;;
69609;Laerm;56815;52.320;4.858;2023-02-25T00:45:08;38.19;34.71;46.70;;
69609;Laerm;56815;52.320;4.858;2023-02-25T00:45:18;38.64;34.98;42.29;;
69609;Laerm;56815;52.320;4.858;2023-02-25T00:45:28;39.27;35.89;43.15;;
69609;Laerm;56815;52.320;4.858;2023-02-25T00:45:39;40.36;37.58;43.53;;
69609;Laerm;56815;52.320;4.858;2023-02-25T00:45:49;40.45;36.98;47.15;;
69609;Laerm;56815;52.320;4.858;2023-02-25T00:45:59;38.45;36.36;41.52;;
69609;Laerm;56815;52.320;4.858;2023-02-25T00:46:10;37.79;36.15;39.92;;
69609;Laerm;56815;52.320;4.858;2023-02-25T00:46:20;38.02;35.83;44.65;;
69609;Laerm;56815;52.320;4.858;2023-02-25T00:46:31;39.06;36.59;48.02;;
69609;Laerm;56815;52.320;4.858;2023-02-25T00:46:41;38.36;36.26;45.89;;
69609;Laerm;56815;52.320;4.858;2023-02-25T00:46:52;38.66;35.79;44.92;;
69609;Laerm;56815;52.320;4.858;2023-02-25T00:47:02;38.25;35.68;41.03;;
69609;Laerm;56815;52.320;4.858;2023-02-25T00:47:13;38.14;35.56;41.08;;
69609;Laerm;56815;52.320;4.858;2023-02-25T00:47:24;38.53;35.76;41.69;;
69609;Laerm;56815;52.320;4.858;2023-02-25T00:47:34;38.87;36.23;41.32;;
69609;Laerm;56815;52.320;4.858;2023-02-25T00:47:44;38.52;35.96;42.71;;
69609;Laerm;56815;52.320;4.858;2023-02-25T00:47:55;38.59;35.60;43.88;;
69609;Laerm;56815;52.320;4.858;2023-02-25T00:48:05;37.98;35.81;41.40;;
69609;Laerm;56815;52.320;4.858;2023-02-25T00:48:16;39.03;35.76;43.10;;
69609;Laerm;56815;52.320;4.858;2023-02-25T00:48:26;37.41;34.93;41.98;;
69609;Laerm;56815;52.320;4.858;2023-02-25T00:48:36;37.15;34.45;40.17;;
69609;Laerm;56815;52.320;4.858;2023-02-25T00:48:48;37.72;35.19;41.61;;
69609;Laerm;56815;52.320;4.858;2023-02-25T00:48:58;37.46;35.22;44.39;;
69609;Laerm;56815;52.320;4.858;2023-02-25T00:49:09;37.59;35.39;40.06;;
69609;Laerm;56815;52.320;4.858;2023-02-25T00:49:19;36.62;34.58;39.39;;
69609;Laerm;56815;52.320;4.858;2023-02-25T00:49:30;37.04;34.23;43.29;;
69609;Laerm;56815;52.320;4.858;2023-02-25T00:49:41;38.31;35.72;41.02;;
69609;Laerm;56815;52.320;4.858;2023-02-25T00:49:51;38.29;35.94;43.62;;
69609;Laerm;56815;52.320;4.858;2023-02-25T00:50:02;38.14;35.70;40.38;;
69609;Laerm;56815;52.320;4.858;2023-02-25T00:50:12;37.27;34.98;40.12;;
69609;Laerm;56815;52.320;4.858;2023-02-25T00:50:23;37.46;34.55;41.25;;
69609;Laerm;56815;52.320;4.858;2023-02-25T00:50:33;37.49;34.71;44.68;;
69609;Laerm;56815;52.320;4.858;2023-02-25T00:50:44;36.73;34.17;40.03;;
69609;Laerm;56815;52.320;4.858;2023-02-25T00:50:54;36.79;33.93;48.27;;
69609;Laerm;56815;52.320;4.858;2023-02-25T00:51:05;36.47;34.43;41.46;;
69609;Laerm;56815;52.320;4.858;2023-02-25T00:51:17;37.60;35.55;42.67;;
69609;Laerm;56815;52.320;4.858;2023-02-25T00:51:29;41.98;33.44;66.05;;
69609;Laerm;56815;52.320;4.858;2023-02-25T00:51:39;36.75;34.67;39.07;;
69609;Laerm;56815;52.320;4.858;2023-02-25T00:51:50;36.56;34.59;40.97;;
69609;Laerm;56815;52.320;4.858;2023-02-25T00:52:00;37.04;34.29;39.43;;
69609;Laerm;56815;52.320;4.858;2023-02-25T00:52:10;37.63;35.24;44.72;;
69609;Laerm;56815;52.320;4.858;2023-02-25T00:52:20;39.06;35.44;47.06;;
69609;Laerm;56815;52.320;4.858;2023-02-25T00:52:34;37.98;36.00;49.49;;
69609;Laerm;56815;52.320;4.858;2023-02-25T00:52:44;39.51;36.51;44.24;;
69609;Laerm;56815;52.320;4.858;2023-02-25T00:52:55;38.60;34.72;46.37;;
69609;Laerm;56815;52.320;4.858;2023-02-25T00:53:05;37.32;35.05;40.19;;
69609;Laerm;56815;52.320;4.858;2023-02-25T00:53:16;37.81;35.89;42.21;;
69609;Laerm;56815;52.320;4.858;2023-02-25T00:53:26;37.82;35.41;41.90;;
69609;Laerm;56815;52.320;4.858;2023-02-25T00:53:37;37.54;35.53;39.64;;
69609;Laerm;56815;52.320;4.858;2023-02-25T00:53:47;36.96;34.58;43.06;;
69609;Laerm;56815;52.320;4.858;2023-02-25T00:53:57;36.13;33.98;42.27;;
69609;Laerm;56815;52.320;4.858;2023-02-25T00:54:08;37.58;34.81;41.58;;
69609;Laerm;56815;52.320;4.858;2023-02-25T00:54:19;37.58;35.59;40.53;;
69609;Laerm;56815;52.320;4.858;2023-02-25T00:54:29;38.27;36.01;42.59;;
69609;Laerm;56815;52.320;4.858;2023-02-25T00:54:39;38.30;35.35;41.83;;
69609;Laerm;56815;52.320;4.858;2023-02-25T00:54:49;37.70;34.86;41.42;;
69609;Laerm;56815;52.320;4.858;2023-02-25T00:55:00;37.07;34.86;38.98;;
69609;Laerm;56815;52.320;4.858;2023-02-25T00:55:10;36.91;34.46;39.37;;
69609;Laerm;56815;52.320;4.858;2023-02-25T00:55:20;37.37;34.94;40.75;;
69609;Laerm;56815;52.320;4.858;2023-02-25T00:55:31;37.26;35.04;40.69;;
69609;Laerm;56815;52.320;4.858;2023-02-25T00:55:42;37.54;34.89;39.73;;
69609;Laerm;56815;52.320;4.858;2023-02-25T00:55:59;38.09;35.01;43.29;;
69609;Laerm;56815;52.320;4.858;2023-02-25T00:56:10;36.61;33.94;40.49;;
69609;Laerm;56815;52.320;4.858;2023-02-25T00:56:24;37.21;34.64;40.49;;
69609;Laerm;56815;52.320;4.858;2023-02-25T00:56:35;37.47;33.99;42.33;;
69609;Laerm;56815;52.320;4.858;2023-02-25T00:56:46;36.32;34.21;38.59;;
69609;Laerm;56815;52.320;4.858;2023-02-25T00:56:56;37.18;35.08;40.29;;
69609;Laerm;56815;52.320;4.858;2023-02-25T00:57:06;38.38;35.95;42.46;;
69609;Laerm;56815;52.320;4.858;2023-02-25T00:57:17;39.02;36.79;42.19;;
69609;Laerm;56815;52.320;4.858;2023-02-25T00:57:27;38.43;35.90;41.74;;
69609;Laerm;56815;52.320;4.858;2023-02-25T00:57:37;36.65;34.01;41.15;;
69609;Laerm;56815;52.320;4.858;2023-02-25T00:57:48;40.13;34.26;62.15;;
69609;Laerm;56815;52.320;4.858;2023-02-25T00:57:59;37.11;34.46;41.55;;
69609;Laerm;56815;52.320;4.858;2023-02-25T00:58:10;37.24;34.98;40.80;;
69609;Laerm;56815;52.320;4.858;2023-02-25T00:58:20;37.21;34.44;40.71;;
69609;Laerm;56815;52.320;4.858;2023-02-25T00:58:30;37.38;34.71;42.77;;
69609;Laerm;56815;52.320;4.858;2023-02-25T00:58:41;36.32;34.35;39.19;;
69609;Laerm;56815;52.320;4.858;2023-02-25T00:58:52;37.24;34.79;42.20;;
69609;Laerm;56815;52.320;4.858;2023-02-25T00:59:02;38.58;34.99;45.60;;
69609;Laerm;56815;52.320;4.858;2023-02-25T00:59:12;38.90;36.44;41.99;;
69609;Laerm;56815;52.320;4.858;2023-02-25T00:59:23;38.79;36.04;41.94;;
69609;Laerm;56815;52.320;4.858;2023-02-25T00:59:33;39.34;37.14;42.15;;
69609;Laerm;56815;52.320;4.858;2023-02-25T00:59:43;38.04;34.82;40.63;;
69609;Laerm;56815;52.320;4.858;2023-02-25T00:59:54;37.14;35.30;45.19;;
69609;Laerm;56815;52.320;4.858;2023-02-25T01:00:04;51.03;35.28;64.83;;
69609;Laerm;56815;52.320;4.858;2023-02-25T01:00:19;37.98;35.55;41.91;;
69609;Laerm;56815;52.320;4.858;2023-02-25T01:00:29;38.19;35.73;47.84;;
69609;Laerm;56815;52.320;4.858;2023-02-25T01:00:39;43.80;36.77;53.79;;
69609;Laerm;56815;52.320;4.858;2023-02-25T01:00:53;41.50;35.99;48.86;;
69609;Laerm;56815;52.320;4.858;2023-02-25T01:01:04;37.65;34.58;44.27;;
69609;Laerm;56815;52.320;4.858;2023-02-25T01:01:17;37.87;35.67;44.81;;